ADDS METAR Data

Data at: 0510 UTC 20 Apr 2018

METAR for:KBML (Berlin Muni, NH, US)
Text:KBML 200501Z AUTO VRB05KT 6SM -SN BR FEW025 OVC031 01/M01 A2976 RMK AO2 P0000 T00111011
Temperature: 1.1°C ( 34°F)
Dewpoint: -1.1°C ( 30°F) [RH = 85%]
Pressure (altimeter):29.76 inches Hg (1007.9 mb)
Winds:variable direction winds at 6 MPH (5 knots; 2.6 m/s)
Visibility: 6 sm ( 10 km)
Ceiling:3100 feet AGL
Clouds: few clouds at 2500 feet AGL, overcast cloud deck at 3100 feet AGL
Weather:-SN BR (light snow, mist)
QC Flag:automated observation with no human augmentation